ADDS METAR Data INFO
IDs: Format: Raw Decoded Include TAF

Data at: 1235 UTC 25 Jul 2017

KT35 251215Z AUTO 00000KT 5SM BR CLR 24/23 A3008 RMK AO2 T02400233
KT35 251155Z AUTO 00000KT 5SM BR CLR 24/23 A3007 RMK AO2 70005 T02410233 10245 20234
KT35 251135Z AUTO 15004KT 7SM SCT015 BKN028 24/23 A3007 RMK AO2 T02430234
KT35 251115Z AUTO 19003KT 7SM BKN017 24/23 A3006 RMK AO2 T02410233
KT35 251055Z AUTO 00000KT 7SM SCT017 24/23 A3006 RMK AO2 T02420233
KT35 251035Z AUTO 00000KT 7SM BKN017 24/23 A3006 RMK AO2 T02430233
KT35 251015Z AUTO 16003KT 7SM BKN017 24/23 A3006 RMK AO2 T02420232
KT35 250955Z AUTO 17003KT 7SM OVC017 24/23 A3004 RMK AO2 T02420232
KT35 250935Z AUTO 00000KT 7SM SCT019 24/23 A3004 RMK AO2 T02400230
KT35 250915Z AUTO 17003KT 7SM CLR 24/23 A3004 RMK AO2 T02400230
KT35 250855Z AUTO 16003KT 7SM SCT019 24/23 A3003 RMK AO2 T02400230
KT35 250835Z AUTO 00000KT 7SM SCT019 24/23 A3003 RMK AO2 T02400229
KT35 250815Z AUTO 00000KT 7SM SCT120 24/22 A3003 RMK AO2 T02350224
KT35 250755Z AUTO 00000KT 10SM SCT018 SCT120 24/23 A3003 RMK AO2 T02370225
KT35 250735Z AUTO 00000KT 10SM SCT017 23/22 A3003 RMK AO2 T02340220
KT35 250715Z AUTO 00000KT 10SM CLR 24/22 A3003 RMK AO2 T02350220
KT35 250655Z AUTO 00000KT 10SM CLR 24/22 A3003 RMK AO2 T02400220
KT35 250635Z AUTO 00000KT 10SM CLR 24/22 A3003 RMK AO2 T02410217
KT35 250615Z AUTO 16003KT 10SM CLR 24/22 A3003 RMK AO2 T02400217
KT35 250555Z AUTO 14003KT 10SM CLR 25/22 A3002 RMK AO2 T02450217 10262 20245 403590240
KT35 250535Z AUTO 16004KT 10SM CLR 25/22 A3002 RMK AO2 T02470217
KT35 250515Z AUTO 16003KT 10SM CLR 25/22 A3002 RMK AO2 T02500218
KT35 250455Z AUTO 00000KT 10SM CLR 25/22 A3001 RMK AO2 T02460220
KT35 250435Z AUTO 00000KT 10SM CLR 25/23 A2999 RMK AO2 T02480225
KT35 250415Z AUTO 14003KT 10SM CLR 25/23 A2999 RMK AO2 T02460227
KT35 250355Z AUTO 14003KT 10SM CLR 25/23 A2998 RMK AO2 T02500228
KT35 250335Z AUTO 14004KT 10SM CLR 25/23 A2997 RMK AO2 T02500230
KT35 250315Z AUTO 17003KT 10SM CLR 25/23 A2997 RMK AO2 T02490233
KT35 250255Z AUTO 13003KT 10SM CLR 25/24 A2996 RMK AO2 T02500236
KT35 250235Z AUTO 00000KT 10SM CLR 25/24 A2996 RMK AO2 T02480237
KT35 250215Z AUTO 00000KT 10SM CLR 25/24 A2996 RMK AO2 T02500237
KT35 250155Z AUTO 00000KT 10SM CLR 26/24 A2995 RMK AO2 T02550241
KT35 250135Z AUTO 00000KT 10SM CLR 26/24 A2994 RMK AO2 T02580238
KT35 250115Z AUTO 00000KT 10SM CLR 26/24 A2994 RMK AO2 T02600238
KT35 250055Z AUTO 00000KT 10SM CLR 26/24 A2994 RMK AO2 T02610236
KT35 250035Z AUTO 31005KT 10SM CLR 26/23 A2994 RMK AO2 T02600233
KT35 250015Z AUTO 32004KT 10SM CLR 25/23 A2994 RMK AO2 T02530230
KT35 242355Z AUTO 00000KT 10SM -RA SCT034 SCT050 SCT060 25/23 A2994 RMK AO2 P0001 60005 T02480226 10359 20240
KT35 242335Z AUTO 00000KT 10SM -RA SCT060 SCT075 OVC090 25/23 A2994 RMK AO2 P0001 T02470225
KT35 242315Z AUTO 00000KT 10SM -RA SCT041 SCT065 BKN090 25/22 A2994 RMK AO2 T02470221
KT35 242255Z AUTO 07003KT 10SM -RA SCT070 BKN085 BKN120 25/22 A2994 RMK AO2 T02450217
KT35 242235Z AUTO 05004KT 10SM SCT070 SCT100 BKN120 24/22 A2995 RMK AO2 T02420219
KT35 242215Z AUTO 02010KT 10SM -RA SCT075 OVC090 24/23 A2996 RMK AO2 LTG DSNT N AND NW T02400225
KT35 242155Z AUTO 04010G15KT 10SM -TSRA SCT075 OVC090 25/23 A2996 RMK AO2 LTG DSNT N AND NE P0001 T02450225
KT35 242135Z AUTO 03007KT 10SM -TSRA SCT050 BKN060 OVC080 26/22 A2997 RMK AO2 LTG DSNT ALQS P0001 T02600219
KT35 242115Z AUTO 01013G17KT 10SM -TSRA BKN050 OVC060 27/21 A2997 RMK AO2 LTG DSNT ALQS T02680206
KT35 242055Z AUTO 25007G23KT 5SM -VCTSRA SCT048 BKN060 BKN090 27/20 A2995 RMK AO2 LTG DSNT ALQS P0003 60003 T02650204
KT35 242035Z AUTO 24018G25KT 7SM BKN060 BKN080 31/19 A2993 RMK AO2 LTG DSNT ALQS T03060189
KT35 242015Z AUTO 23005KT 10SM SCT050 SCT070 BKN090 35/21 A2994 RMK AO2 LTG DSNT NE E AND W T03520212
KT35 241955Z AUTO 16007KT 10SM SCT050 BKN090 35/21 A2994 RMK AO2 LTG DSNT NE E AND W T03460209
KT35 241935Z AUTO 20009KT 10SM SCT050 36/22 A2994 RMK AO2 LTG DSNT NE AND W T03570215
KT35 241915Z AUTO 21006KT 10SM SCT050 36/23 A2995 RMK AO2 LTG DSNT NE T03580228
KT35 241855Z AUTO 22003KT 10SM BKN046 BKN050 34/23 A2996 RMK AO2 LTG DSNT NE AND W T03360225
KT35 241835Z AUTO 00000KT 7SM BKN044 BKN080 34/23 A2997 RMK AO2 LTG DSNT NE T03380226
KT35 241815Z AUTO 00000KT 10SM SCT042 SCT080 34/23 A2998 RMK AO2 LTG DSNT NE T03400227
KT35 241755Z AUTO 18008KT 10SM SCT038 34/23 A2997 RMK AO2 T03370230 10337 20257
KT35 241735Z AUTO 22005KT 10SM SCT038 33/23 A2998 RMK AO2 T03280227
KT35 241715Z AUTO 18008KT 10SM CLR 33/23 A2999 RMK AO2 T03320231
KT35 241655Z AUTO 21008KT 10SM CLR 33/23 A2999 RMK AO2 T03330231
KT35 241635Z AUTO 18009G18KT 7SM CLR 32/23 A2999 RMK AO2 T03180230
KT35 241615Z AUTO 23010G17KT 7SM SCT026 32/23 A2999 RMK AO2 T03150230
KT35 241555Z AUTO 23010G17KT 10SM SCT024 31/23 A2999 RMK AO2 T03140232
KT35 241535Z AUTO 20012G16KT 7SM BKN024 31/23 A2999 RMK AO2 T03100234
KT35 241515Z AUTO 22010G17KT 10SM SCT020 OVC026 29/23 A2999 RMK AO2 T02900230
KT35 241455Z AUTO 22006KT 7SM BKN020 OVC026 29/24 A3001 RMK AO2 T02850236
KT35 241435Z AUTO 24008KT 7SM BKN020 OVC026 29/24 A3000 RMK AO2 T02850235
KT35 241415Z AUTO 22008G14KT 7SM BKN018 OVC026 28/24 A3000 RMK AO2 LTG DSNT E T02790235
KT35 241355Z AUTO 23008G16KT 7SM BKN018 OVC026 28/24 A2999 RMK AO2 LTG DSNT E T02770235
KT35 241335Z AUTO 22009KT 7SM SCT016 SCT075 27/24 A2999 RMK AO2 LTG DSNT E T02740237
KT35 241315Z AUTO 22007KT 7SM CLR 27/24 A2997 RMK AO2 LTG DSNT E T02670238
KT35 241255Z AUTO 21006KT 7SM CLR 27/24 A2997 RMK AO2 T02650238
KT35 241235Z AUTO 20007KT 7SM CLR 26/24 A2997 RMK AO2 T02620238
KT35 241215Z AUTO 20005KT 7SM CLR 26/24 A2996 RMK AO2 LTG DSNT E T02610237
KT35 241155Z AUTO 20006KT 7SM CLR 26/24 A2996 RMK AO2 LTG DSNT E T02570237 10276 20257
KT35 241135Z AUTO 21005KT 10SM CLR 26/24 A2995 RMK AO2 T02580236
KT35 241115Z AUTO 24004KT 10SM CLR 26/24 A2994 RMK AO2 T02610236
KT35 241055Z AUTO 23005KT 10SM SCT060 26/24 A2994 RMK AO2 LTG DSNT E T02610236
KT35 241035Z AUTO 31003KT 10SM SCT060 26/24 A2995 RMK AO2 T02570237
KT35 241015Z AUTO 29003KT 10SM SCT055 SCT070 SCT080 26/24 A2994 RMK AO2 T02580236
KT35 240955Z AUTO 30003KT 10SM OVC055 26/23 A2994 RMK AO2 T02610234
KT35 240935Z AUTO 28003KT 10SM BKN055 26/23 A2994 RMK AO2 LTG DSNT E AND NW T02620234
KT35 240915Z AUTO 00000KT 10SM SCT055 SCT110 26/23 A2993 RMK AO2 T02580232
KT35 240855Z AUTO 00000KT 10SM BKN110 26/23 A2994 RMK AO2 T02610232
KT35 240835Z AUTO 00000KT 10SM OVC110 26/23 A2994 RMK AO2 LTG DSNT E T02620233
KT35 240815Z AUTO 24004KT 10SM BKN110 27/23 A2994 RMK AO2 T02680232
KT35 240755Z AUTO 00000KT 10SM CLR 27/23 A2994 RMK AO2 T02700233
KT35 240735Z AUTO 00000KT 10SM SCT120 27/23 A2993 RMK AO2 T02710232
KT35 240715Z AUTO 20004KT 10SM SCT120 27/23 A2993 RMK AO2 T02710232
KT35 240655Z AUTO 20004KT 10SM SCT120 27/23 A2993 RMK AO2 T02730230
KT35 240635Z AUTO 25003KT 10SM CLR 27/23 A2994 RMK AO2 T02730230
KT35 240615Z AUTO 19005KT 10SM CLR 27/23 A2993 RMK AO2 T02720227
KT35 240555Z AUTO 20004KT 10SM CLR 27/23 A2993 RMK AO2 T02720225 10332 20265 403830255
KT35 240535Z AUTO 19007KT 10SM CLR 27/22 A2992 RMK AO2 T02740223
KT35 240515Z AUTO 19008KT 10SM CLR 28/22 A2991 RMK AO2 T02770221
KT35 240455Z AUTO 00000KT 10SM CLR 27/21 A2992 RMK AO2 T02650214
KT35 240435Z AUTO 00000KT 10SM CLR 28/21 A2992 RMK AO2 T02780209
KT35 240415Z AUTO 16003KT 10SM CLR 28/21 A2991 RMK AO2 LTG DSNT NE T02760208
KT35 240355Z AUTO 17003KT 10SM CLR 28/21 A2991 RMK AO2 T02760209
KT35 240335Z AUTO 00000KT 10SM CLR 28/21 A2991 RMK AO2 T02790205
KT35 240315Z AUTO 14003KT 10SM CLR 28/21 A2990 RMK AO2 T02790206
KT35 240255Z AUTO 10004KT 10SM CLR 28/21 A2989 RMK AO2 T02760212
KT35 240235Z AUTO 00000KT 10SM CLR 29/21 A2988 RMK AO2 T02850210
KT35 240215Z AUTO 00000KT 10SM CLR 28/21 A2987 RMK AO2 T02840210
KT35 240155Z AUTO 00000KT 10SM CLR 29/21 A2987 RMK AO2 T02870208
KT35 240135Z AUTO 00000KT 10SM CLR 29/21 A2986 RMK AO2 LTG DSNT E T02900205
KT35 240115Z AUTO 21004KT 10SM SCT085 SCT110 30/20 A2986 RMK AO2 T03020200
KT35 240055Z AUTO 20006KT 10SM SCT075 SCT085 BKN110 30/20 A2985 RMK AO2 T02980204